Sunday, July 22, 2018, 12:54 PM GMT
Back to Local

CYQM, Moncton, N. B.

Location: , , Canada Lat: 46.117
Local Time: 12:54 PM GMT (12:54 GMT) Lon: -64.683
Time Zone: GMT Elev: 232 ft

Show me the last for .
Show Decoded

2018-07-22 12:00 METAR CYQM 221200Z VRB02KT 15SM FEW006 SCT035 22/19 A3023 RMK SF2SC1 SLP240
                 DENSITY ALT 800FT =
2018-07-22 11:00 METAR CYQM 221100Z 20003KT 150V210 12SM FEW005 SCT260 20/19 A3024 RMK SF2CI1
                 SLP241 DENSITY ALT 600FT =
2018-07-22 10:00 METAR CYQM 221000Z 17003KT 10SM SCT004 BKN260 18/18 A3023 RMK SF3CI3 SLP237
                 DENSITY ALT 400FT =
2018-07-22 09:03 METAR CYQM 220903Z CCA 19003KT 2SM BR VCFG FEW004 FEW030 18/17 A3021 RMK SF1SC1
                 VIS S - W 5 SLP232 DENSITY ALT 300FT =
2018-07-22 09:00 METAR CYQM 220900Z 18004KT 1SM R06/P6000FT/D R29/P6000FT/D BR FEW004 FEW030
                 18/17 A3021 RMK SF1SC1 VIS S - W 5 SLP232 DENSITY ALT 300FT =
2018-07-22 08:46 METAR CYQM 220846Z 20006KT 1 1/2SM BR FEW005 FEW030 SCT240 18/17 A3021 RMK
                 SF1SC1CI2 SLP231 DENSITY ALT 300FT =
2018-07-22 08:37 METAR CYQM 220837Z 20004KT 1 1/2SM BR MIFG FEW030 FEW240 18/18 A3020 RMK SC1CI1
                 SLP230 DENSITY ALT 400FT =
2018-07-22 08:13 METAR CYQM 220813Z 18005KT 8SM R29/2800VP6000FT/U VCFG SCT005 SCT030 BKN240
                 18/18 A3020 RMK SF3SC1CI2 VIS N - SW 3 SLP230 DENSITY ALT 400FT =
2018-07-22 08:00 METAR CYQM 220800Z 18003KT 15SM FEW030 19/18 A3020 RMK SC1 SLP228 DENSITY ALT
                 400FT =
2018-07-22 07:00 METAR CYQM 220700Z 21004KT 15SM FEW030 FEW240 19/18 A3020 RMK SC1CI1 SLP229
                 DENSITY ALT 500FT =
2018-07-22 06:00 METAR CYQM 220600Z 21005KT 15SM BKN032 BKN240 19/18 A3020 RMK SC5CI1 SLP228
                 DENSITY ALT 500FT =
2018-07-22 05:00 METAR CYQM 220500Z 22005KT 15SM FEW015 SCT035 20/19 A3018 RMK SF1SC3 SLP222
                 DENSITY ALT 700FT =
2018-07-22 04:00 METAR CYQM 220400Z 21005KT 15SM BKN015 BKN025 21/19 A3018 RMK SF6SC1 SLP222
                 DENSITY ALT 700FT =
2018-07-22 03:35 METAR CYQM 220335Z 20004KT 15SM FEW012 BKN025 21/19 A3018 RMK SF2SC5 SLP222
                 DENSITY ALT 800FT =
2018-07-22 03:00 METAR CYQM 220300Z 19003KT 15SM BKN014 22/19 A3017 RMK SF7 SLP217 DENSITY ALT
                 800FT =
2018-07-22 02:00 METAR CYQM 220200Z VRB02KT 15SM BKN012 21/19 A3016 RMK SF7 SLP213 DENSITY ALT
                 800FT =
2018-07-22 01:00 METAR CYQM 220100Z 05002KT 15SM BKN014 21/19 A3015 RMK SC7 SLP212 DENSITY ALT
                 800FT =
2018-07-22 00:00 METAR CYQM 220000Z 04004KT 15SM BKN015 22/19 A3014 RMK SC7 SLP209 DENSITY ALT
                 800FT =
2018-07-21 23:00 METAR CYQM 212300Z 02005KT 15SM BKN015 22/19 A3014 RMK SC7 SLP208 DENSITY ALT
                 900FT =
2018-07-21 22:00 METAR CYQM 212200Z 06004KT 15SM FEW013 BKN020 23/19 A3014 RMK CU1SC6 SLP208
                 DENSITY ALT 1000FT =
2018-07-21 21:00 METAR CYQM 212100Z 07007KT 030V100 15SM FEW017 BKN021 BKN029 24/19 A3014 RMK
                 CU1SC5SC2 CU TR SLP209 DENSITY ALT 1100FT =
2018-07-21 20:00 METAR CYQM 212000Z 07009G16KT 030V090 15SM FEW020 BKN026 25/20 A3014 RMK CU1SC6
                 CU TR SLP209 DENSITY ALT 1200FT =
2018-07-21 19:00 METAR CYQM 211900Z 06006KT 020V080 15SM BKN024 BKN260 25/20 A3015 RMK SC5CI1
                 SLP210 DENSITY ALT 1200FT =
2018-07-21 18:00 METAR CYQM 211800Z 04012KT 15SM FEW023 BKN035 BKN260 25/20 A3015 RMK CU1SC5CI1
                 CI TR SLP211 DENSITY ALT 1200FT =
2018-07-21 17:00 METAR CYQM 211700Z 05006KT 030V100 15SM SCT033 BKN260 26/19 A3015 RMK CU4CI2
                 SLP212 DENSITY ALT 1400FT =
2018-07-21 16:00 METAR CYQM 211600Z 09004KT 15SM SCT036 BKN260 26/18 A3017 RMK CU3CI2 SLP219
                 DENSITY ALT 1300FT =
2018-07-21 15:00 METAR CYQM 211500Z 07006KT 010V120 15SM FEW031 SCT260 26/17 A3019 RMK CU2CI2
                 SLP226 DENSITY ALT 1200FT =
2018-07-21 14:00 METAR CYQM 211400Z 12008KT 060V140 15SM FEW025 SCT260 24/18 A3020 RMK CU1CI2
                 SLP227 DENSITY ALT 1000FT =
2018-07-21 13:00 METAR CYQM 211300Z 05004KT 020V130 15SM FEW033 SCT260 22/17 A3020 RMK SC1CI3 SC
                 TR SLP228 DENSITY ALT 800FT =

Support USWX by starting your Amazon purchase here.